Observation data for Memphis on 08/14/2019      Previous  Date  Next       Current Mesonet Observations  Soil Data  Daily Summary Page  Observations in Plain Language
KMES 140500Z 04006KT 25/18 A3009 RMK A01 T02540183  RH  068%=      5-min Rain = 0
KMES 140505Z 04006KT 26/18 A301 RMK A01 T02550182  RH  068%=      5-min Rain = 0
KMES 140510Z 04008KT 26/18 A301 RMK A01 T02570182  RH  067%=      5-min Rain = 0
KMES 140515Z 03008KT 26/18 A3011 RMK A01 T02590183  RH  066%=      5-min Rain = 0
KMES 140520Z 03009KT 26/18 A3012 RMK A01 T02620182  RH  065%=      5-min Rain = 0
KMES 140525Z 04008KT 26/18 A3012 RMK A01 T02640183  RH  064%=      5-min Rain = 0
KMES 140530Z 04008KT 26/18 A3012 RMK A01 T02640183  RH  064%=      5-min Rain = 0
KMES 140535Z 03007KT 26/18 A3012 RMK A01 T02630183  RH  064%=      5-min Rain = 0
KMES 140540Z 03007KT 26/18 A3012 RMK A01 T02600183  RH  066%=      5-min Rain = 0
KMES 140545Z 02008KT 26/18 A3012 RMK A01 T02580183  RH  067%=      5-min Rain = 0
KMES 140550Z 03008KT 26/18 A3012 RMK A01 T02560183  RH  068%=      5-min Rain = 0
KMES 140555Z 03007KT 26/18 A3013 RMK A01 T02550184  RH  068%=      5-min Rain = 0
KMES 140600Z 04007KT 26/19 A3013 RMK A01 T02550185  RH  069%=      5-min Rain = 0
KMES 140605Z 04006KT 25/19 A3012 RMK A01 T02540185  RH  069%=      5-min Rain = 0
KMES 140610Z 04006KT 25/19 A3012 RMK A01 T02530185  RH  070%=      5-min Rain = 0
KMES 140615Z 04005KT 25/19 A3012 RMK A01 T02510186  RH  071%=      5-min Rain = 0
KMES 140620Z 02006G12KT 25/19 A3012 RMK A01 T02500186  RH  071%=      5-min Rain = 0
KMES 140625Z 01011G17KT 25/19 A3013 RMK A01 T02480186  RH  073%=      5-min Rain = 0
KMES 140630Z 02012G20KT 25/19 A3013 RMK A01 T02490186  RH  072%=      5-min Rain = 0
KMES 140635Z 02015G22KT 25/18 A3013 RMK A01 T02470180  RH  070%=      5-min Rain = 0
KMES 140640Z 02010G15KT 24/18 A3012 RMK A01 T02430177  RH  071%=      5-min Rain = 0
KMES 140645Z 01009KT 24/18 A3012 RMK A01 T02390176  RH  072%=      5-min Rain = 0
KMES 140650Z 02009G15KT 24/18 A3012 RMK A01 T02370175  RH  072%=      5-min Rain = 0
KMES 140655Z 02012G19KT 23/17 A3012 RMK A01 T02340167  RH  069%=      5-min Rain = 0
KMES 140700Z 03010G15KT 23/16 A3012 RMK A01 T02340159  RH  066%=      5-min Rain = 0
KMES 140705Z 02008KT 23/16 A3012 RMK A01 T02320161  RH  067%=      5-min Rain = 0
KMES 140710Z 02010KT 23/15 A3012 RMK A01 T02290154  RH  065%=      5-min Rain = 0
KMES 140715Z 02010KT 23/15 A3012 RMK A01 T02260149  RH  065%=      5-min Rain = 0
KMES 140720Z 02009G14KT 22/15 A3012 RMK A01 T02240148  RH  065%=      5-min Rain = 0
KMES 140725Z 02009KT 22/15 A3011 RMK A01 T02210147  RH  065%=      5-min Rain = 0
KMES 140730Z 01009G14KT 22/15 A3011 RMK A01 T02200146  RH  065%=      5-min Rain = 0
KMES 140735Z 01011KT 22/15 A3012 RMK A01 T02200145  RH  065%=      5-min Rain = 0
KMES 140740Z 01010KT 22/14 A3011 RMK A01 T02190144  RH  065%=      5-min Rain = 0
KMES 140745Z 01011KT 22/14 A3012 RMK A01 T02180143  RH  065%=      5-min Rain = 0
KMES 140750Z 01008KT 22/14 A3012 RMK A01 T02170144  RH  066%=      5-min Rain = 0
KMES 140755Z 00009KT 22/15 A3012 RMK A01 T02150145  RH  067%=      5-min Rain = 0
KMES 140800Z 01009KT 21/15 A3012 RMK A01 T02140145  RH  068%=      5-min Rain = 0
KMES 140805Z 02008KT 21/14 A3011 RMK A01 T02140144  RH  067%=      5-min Rain = 0
KMES 140810Z 01009KT 21/14 A3011 RMK A01 T02130144  RH  068%=      5-min Rain = 0
KMES 140815Z 01009KT 21/14 A3012 RMK A01 T02120144  RH  068%=      5-min Rain = 0
KMES 140820Z 01008KT 21/14 A3012 RMK A01 T02110144  RH  068%=      5-min Rain = 0
KMES 140825Z 01009KT 21/14 A3012 RMK A01 T02110144  RH  069%=      5-min Rain = 0
KMES 140830Z 01009KT 21/14 A3012 RMK A01 T02100144  RH  069%=      5-min Rain = 0
KMES 140835Z 01010KT 21/14 A3012 RMK A01 T02100144  RH  069%=      5-min Rain = 0
KMES 140840Z 01010KT 21/14 A3012 RMK A01 T02090144  RH  069%=      5-min Rain = 0
KMES 140845Z 01011KT 21/15 A3011 RMK A01 T02090145  RH  069%=      5-min Rain = 0
KMES 140850Z 01009KT 21/15 A3011 RMK A01 T02090145  RH  070%=      5-min Rain = 0
KMES 140855Z 01009KT 21/15 A3012 RMK A01 T02080145  RH  070%=      5-min Rain = 0
KMES 140900Z 01010KT 21/15 A3012 RMK A01 T02070145  RH  071%=      5-min Rain = 0
KMES 140905Z 01010KT 21/15 A3012 RMK A01 T02070146  RH  071%=      5-min Rain = 0
KMES 140910Z 01009KT 21/15 A3013 RMK A01 T02060146  RH  072%=      5-min Rain = 0
KMES 140915Z 01010KT 21/15 A3012 RMK A01 T02060147  RH  072%=      5-min Rain = 0
KMES 140920Z 02010KT 21/15 A3012 RMK A01 T02050148  RH  073%=      5-min Rain = 0
KMES 140925Z 02009G14KT 21/15 A3013 RMK A01 T02050148  RH  073%=      5-min Rain = 0
KMES 140930Z 02010KT 21/15 A3013 RMK A01 T02050149  RH  073%=      5-min Rain = 0
KMES 140935Z 02008KT 20/15 A3013 RMK A01 T02040150  RH  074%=      5-min Rain = 0
KMES 140940Z 02009KT 20/15 A3014 RMK A01 T02040150  RH  075%=      5-min Rain = 0
KMES 140945Z 01008KT 20/15 A3014 RMK A01 T02030151  RH  075%=      5-min Rain = 0
KMES 140950Z 01009KT 20/15 A3015 RMK A01 T02020152  RH  076%=      5-min Rain = 0
KMES 140955Z 01008KT 20/15 A3015 RMK A01 T02020152  RH  077%=      5-min Rain = 0
KMES 141000Z 01008KT 20/15 A3015 RMK A01 T02010153  RH  077%=      5-min Rain = 0
KMES 141005Z 00008KT 20/15 A3015 RMK A01 T02010153  RH  078%=      5-min Rain = 0
KMES 141010Z 01007KT 20/15 A3015 RMK A01 T02000154  RH  078%=      5-min Rain = 0
KMES 141015Z 00007KT 20/15 A3014 RMK A01 T02000154  RH  078%=      5-min Rain = 0
KMES 141020Z 01006KT 20/15 A3014 RMK A01 T01990154  RH  078%=      5-min Rain = 0
KMES 141025Z 00004KT 20/15 A3014 RMK A01 T01990154  RH  079%=      5-min Rain = 0
KMES 141030Z 34004KT 20/15 A3015 RMK A01 T01980154  RH  079%=      5-min Rain = 0
KMES 141035Z 34002KT 20/15 A3015 RMK A01 T01980154  RH  079%=      5-min Rain = 0
KMES 141040Z 34003KT 20/15 A3015 RMK A01 T01970154  RH  080%=      5-min Rain = 0
KMES 141045Z 35003KT 20/16 A3015 RMK A01 T01970155  RH  080%=      5-min Rain = 0
KMES 141050Z 34003KT 20/16 A3016 RMK A01 T01970155  RH  080%=      5-min Rain = 0
KMES 141055Z 36005KT 20/16 A3016 RMK A01 T01960155  RH  081%=      5-min Rain = 0
KMES 141100Z 36005KT 20/16 A3016 RMK A01 T01980156  RH  080%=      5-min Rain = 0
KMES 141105Z 34005KT 20/16 A3016 RMK A01 T01990156  RH  080%=      5-min Rain = 0
KMES 141110Z 35007KT 20/16 A3016 RMK A01 T01990157  RH  080%=      5-min Rain = 0
KMES 141115Z 34007KT 20/16 A3016 RMK A01 T02000157  RH  080%=      5-min Rain = 0
KMES 141120Z 35007KT 20/16 A3016 RMK A01 T02000157  RH  080%=      5-min Rain = 0
KMES 141125Z 35005KT 20/16 A3016 RMK A01 T02000157  RH  080%=      5-min Rain = 0
KMES 141130Z 36003KT 20/16 A3016 RMK A01 T02000157  RH  080%=      5-min Rain = 0
KMES 141135Z 01002KT 20/16 A3016 RMK A01 T02000157  RH  080%=      5-min Rain = 0
KMES 141140Z 35003KT 20/16 A3016 RMK A01 T01990157  RH  080%=      5-min Rain = 0
KMES 141145Z 34002KT 20/16 A3016 RMK A01 T01970157  RH  081%=      5-min Rain = 0
KMES 141150Z 32002KT 20/16 A3016 RMK A01 T01970158  RH  081%=      5-min Rain = 0
KMES 141155Z 30002KT 20/16 A3015 RMK A01 T01980158  RH  081%=      5-min Rain = 0
KMES 141200Z 32002KT 20/16 A3015 RMK A01 T01980158  RH  081%=      5-min Rain = 0
KMES 141205Z 34005KT 20/16 A3016 RMK A01 T01970158  RH  082%=      5-min Rain = 0
KMES 141210Z 33006KT 20/16 A3017 RMK A01 T01960158  RH  082%=      5-min Rain = 0
KMES 141215Z 33005KT 20/16 A3017 RMK A01 T01970158  RH  082%=      5-min Rain = 0
KMES 141220Z 33004KT 20/16 A3016 RMK A01 T01960158  RH  082%=      5-min Rain = 0
KMES 141225Z 33008KT 20/16 A3017 RMK A01 T01960158  RH  083%=      5-min Rain = 0
KMES 141230Z 33006KT 20/16 A3017 RMK A01 T01960158  RH  083%=      5-min Rain = 0
KMES 141235Z 33008KT 20/16 A3017 RMK A01 T01980159  RH  082%=      5-min Rain = 0
KMES 141240Z 33006KT 20/16 A3017 RMK A01 T02000160  RH  081%=      5-min Rain = 0
KMES 141245Z 33008KT 20/16 A3017 RMK A01 T02020159  RH  080%=      5-min Rain = 0
KMES 141250Z 33008KT 20/16 A3018 RMK A01 T02020159  RH  080%=      5-min Rain = 0
KMES 141255Z 34007KT 20/16 A3018 RMK A01 T02040160  RH  079%=      5-min Rain = 0
KMES 141300Z 35007KT 21/16 A3018 RMK A01 T02080161  RH  078%=      5-min Rain = 0
KMES 141305Z 35008KT 21/16 A3018 RMK A01 T02130162  RH  076%=      5-min Rain = 0
KMES 141310Z 35008KT 22/16 A3018 RMK A01 T02160161  RH  075%=      5-min Rain = 0
KMES 141315Z 35008KT 22/16 A3018 RMK A01 T02160160  RH  074%=      5-min Rain = 0
KMES 141320Z 35007KT 22/16 A3018 RMK A01 T02170159  RH  073%=      5-min Rain = 0
KMES 141325Z 35007KT 22/16 A3018 RMK A01 T02170159  RH  073%=      5-min Rain = 0
KMES 141330Z 34006KT 22/16 A3019 RMK A01 T02180159  RH  072%=      5-min Rain = 0
KMES 141335Z 34005KT 22/16 A3019 RMK A01 T02200160  RH  072%=      5-min Rain = 0
KMES 141340Z 33004KT 22/16 A3019 RMK A01 T02210160  RH  072%=      5-min Rain = 0
KMES 141345Z 32005KT 22/16 A3019 RMK A01 T02220161  RH  071%=      5-min Rain = 0
KMES 141350Z 32005KT 22/16 A3019 RMK A01 T02230160  RH  071%=      5-min Rain = 0
KMES 141355Z 34005KT 22/16 A3019 RMK A01 T02240160  RH  070%=      5-min Rain = 0
KMES 141400Z 34005KT 23/16 A302 RMK A01 T02260161  RH  070%=      5-min Rain = 0
KMES 141405Z 35006KT 23/16 A302 RMK A01 T02270162  RH  070%=      5-min Rain = 0
KMES 141410Z 35007KT 23/16 A302 RMK A01 T02280161  RH  069%=      5-min Rain = 0
KMES 141415Z 34007KT 23/16 A302 RMK A01 T02290161  RH  069%=      5-min Rain = 0
KMES 141420Z 34006KT 23/16 A302 RMK A01 T02300161  RH  068%=      5-min Rain = 0
KMES 141425Z 33004KT 23/16 A3019 RMK A01 T02310160  RH  067%=      5-min Rain = 0
KMES 141430Z 30003KT 23/16 A3019 RMK A01 T02320160  RH  067%=      5-min Rain = 0
KMES 141435Z 30002KT 23/16 A3019 RMK A01 T02340162  RH  067%=      5-min Rain = 0
KMES 141440Z 32003KT 24/16 A3019 RMK A01 T02370163  RH  066%=      5-min Rain = 0
KMES 141445Z 30003KT 24/16 A3019 RMK A01 T02380163  RH  066%=      5-min Rain = 0
KMES 141450Z 28004KT 24/16 A3019 RMK A01 T02390162  RH  065%=      5-min Rain = 0
KMES 141455Z 28004KT 24/16 A3019 RMK A01 T02400164  RH  065%=      5-min Rain = 0
KMES 141500Z 29003KT 24/16 A3019 RMK A01 T02410164  RH  065%=      5-min Rain = 0
KMES 141505Z 26004KT 24/16 A3019 RMK A01 T02430164  RH  064%=      5-min Rain = 0
KMES 141510Z 25003KT 24/16 A3019 RMK A01 T02440164  RH  064%=      5-min Rain = 0
KMES 141515Z 23003KT 25/16 A3018 RMK A01 T02460164  RH  063%=      5-min Rain = 0
KMES 141520Z 30001KT 25/17 A3018 RMK A01 T02490166  RH  063%=      5-min Rain = 0
KMES 141525Z 32001KT 25/17 A3018 RMK A01 T02510167  RH  063%=      5-min Rain = 0
KMES 141530Z 22002KT 25/17 A3018 RMK A01 T02530168  RH  062%=      5-min Rain = 0
KMES 141535Z 18001KT 25/17 A3018 RMK A01 T02530168  RH  062%=      5-min Rain = 0
KMES 141540Z 20001KT 26/17 A3018 RMK A01 T02560170  RH  062%=      5-min Rain = 0
KMES 141545Z 34002KT 26/17 A3018 RMK A01 T02570171  RH  062%=      5-min Rain = 0
KMES 141550Z 02002KT 26/17 A3017 RMK A01 T02560174  RH  064%=      5-min Rain = 0
KMES 141555Z 09001KT 26/17 A3017 RMK A01 T02560173  RH  063%=      5-min Rain = 0
KMES 141600Z 06003KT 26/17 A3017 RMK A01 T02580174  RH  063%=      5-min Rain = 0
KMES 141605Z 07002KT 26/18 A3016 RMK A01 T02590175  RH  063%=      5-min Rain = 0
KMES 141610Z 08003KT 26/18 A3016 RMK A01 T02640176  RH  061%=      5-min Rain = 0
KMES 141615Z 09005KT 27/18 A3016 RMK A01 T02700178  RH  060%=      5-min Rain = 0
KMES 141620Z 07003KT 27/18 A3016 RMK A01 T02710178  RH  060%=      5-min Rain = 0
KMES 141625Z 29001KT 27/18 A3017 RMK A01 T02710176  RH  059%=      5-min Rain = 0
KMES 141630Z 28003KT 27/18 A3017 RMK A01 T02720177  RH  059%=      5-min Rain = 0
KMES 141635Z 28004KT 28/18 A3017 RMK A01 T02750179  RH  059%=      5-min Rain = 0
KMES 141640Z 26004KT 28/18 A3017 RMK A01 T02780179  RH  058%=      5-min Rain = 0
KMES 141645Z 25003KT 28/18 A3017 RMK A01 T02800179  RH  057%=      5-min Rain = 0
KMES 141650Z 24002KT 28/18 A3017 RMK A01 T02840182  RH  057%=      5-min Rain = 0
KMES 141655Z 26004KT 29/18 A3017 RMK A01 T02890181  RH  055%=      5-min Rain = 0
KMES 141700Z 24003KT 29/18 A3017 RMK A01 T02900182  RH  055%=      5-min Rain = 0
KMES 141705Z 24004KT 29/18 A3017 RMK A01 T02930182  RH  054%=      5-min Rain = 0
KMES 141710Z 08001KT 29/18 A3016 RMK A01 T02890179  RH  054%=      5-min Rain = 0
KMES 141715Z 06001KT 29/18 A3016 RMK A01 T02900182  RH  055%=      5-min Rain = 0
KMES 141720Z 35005G11KT 30/17 A3016 RMK A01 T02970174  RH  050%=      5-min Rain = 0
KMES 141725Z 01007KT 30/18 A3016 RMK A01 T02960175  RH  051%=      5-min Rain = 0
KMES 141730Z 34007KT 29/17 A3015 RMK A01 T02940171  RH  050%=      5-min Rain = 0
KMES 141735Z 35008KT 30/17 A3015 RMK A01 T02980172  RH  049%=      5-min Rain = 0
KMES 141740Z 34008KT 30/17 A3015 RMK A01 T03000169  RH  048%=      5-min Rain = 0
KMES 141745Z 01008G14KT 30/17 A3015 RMK A01 T03000170  RH  048%=      5-min Rain = 0
KMES 141750Z 00010KT 30/17 A3015 RMK A01 T03010171  RH  048%=      5-min Rain = 0
KMES 141755Z 35010G15KT 30/17 A3015 RMK A01 T02970168  RH  048%=      5-min Rain = 0
KMES 141800Z 35008KT 30/17 A3015 RMK A01 T02950169  RH  049%=      5-min Rain = 0
KMES 141805Z 00008KT 30/17 A3015 RMK A01 T02990172  RH  049%=      5-min Rain = 0
KMES 141810Z 02009KT 30/17 A3014 RMK A01 T03010170  RH  048%=      5-min Rain = 0
KMES 141815Z 06008G13KT 30/17 A3013 RMK A01 T03040166  RH  046%=      5-min Rain = 0
KMES 141820Z 01006KT 30/17 A3013 RMK A01 T03010168  RH  047%=      5-min Rain = 0
KMES 141825Z 35006G11KT 30/17 A3013 RMK A01 T03030169  RH  047%=      5-min Rain = 0
KMES 141830Z 02004G14KT 30/17 A3012 RMK A01 T03030168  RH  046%=      5-min Rain = 0
KMES 141835Z 08006KT 31/16 A3012 RMK A01 T03100163  RH  043%=      5-min Rain = 0
KMES 141840Z 11006KT 31/16 A3012 RMK A01 T03120158  RH  041%=      5-min Rain = 0
KMES 141845Z 11004KT 31/16 A3012 RMK A01 T03140161  RH  042%=      5-min Rain = 0
KMES 141850Z 02005G11KT 31/17 A3012 RMK A01 T03140165  RH  043%=      5-min Rain = 0
KMES 141855Z 08007KT 32/16 A3012 RMK A01 T03150163  RH  042%=      5-min Rain = 0
KMES 141900Z 15002KT 31/16 A3012 RMK A01 T03140162  RH  042%=      5-min Rain = 0
KMES 141905Z 36004KT 31/16 A3011 RMK A01 T03140162  RH  042%=      5-min Rain = 0
KMES 141910Z 13005G10KT 32/16 A3011 RMK A01 T03160160  RH  041%=      5-min Rain = 0
KMES 141915Z 11006G11KT 32/16 A3011 RMK A01 T03220157  RH  039%=      5-min Rain = 0
KMES 141920Z 11003KT 32/16 A3011 RMK A01 T03220155  RH  038%=      5-min Rain = 0
KMES 141925Z 13004KT 32/16 A3011 RMK A01 T03200159  RH  040%=      5-min Rain = 0
KMES 141930Z 14005KT 32/16 A301 RMK A01 T03170159  RH  040%=      5-min Rain = 0
KMES 141935Z 17005KT 32/16 A301 RMK A01 T03210163  RH  040%=      5-min Rain = 0
KMES 141940Z 19004KT 32/16 A301 RMK A01 T03220162  RH  040%=      5-min Rain = 0
KMES 141945Z 13005KT 32/16 A301 RMK A01 T03240158  RH  039%=      5-min Rain = 0
KMES 141950Z 09005KT 33/16 A3009 RMK A01 T03250156  RH  038%=      5-min Rain = 0
KMES 141955Z 14007KT 33/17 A3009 RMK A01 T03290165  RH  039%=      5-min Rain = 0
KMES 142000Z 14005KT 33/17 A3009 RMK A01 T03290165  RH  039%=      5-min Rain = 0
KMES 142005Z 15005G11KT 33/16 A3009 RMK A01 T03250162  RH  040%=      5-min Rain = 0
KMES 142010Z 17006KT 33/16 A3009 RMK A01 T03270163  RH  039%=      5-min Rain = 0
KMES 142015Z 14005KT 33/16 A3009 RMK A01 T03290163  RH  039%=      5-min Rain = 0
KMES 142020Z 19006KT 33/17 A3008 RMK A01 T03300165  RH  039%=      5-min Rain = 0
KMES 142025Z 11007KT 34/16 A3008 RMK A01 T03350160  RH  037%=      5-min Rain = 0
KMES 142030Z 07007KT 33/16 A3008 RMK A01 T03330157  RH  037%=      5-min Rain = 0
KMES 142035Z 09002KT 33/16 A3008 RMK A01 T03310159  RH  037%=      5-min Rain = 0
KMES 142040Z 10005KT 33/16 A3007 RMK A01 T03330158  RH  037%=      5-min Rain = 0
KMES 142045Z 09003KT 33/16 A3007 RMK A01 T03300159  RH  037%=      5-min Rain = 0
KMES 142050Z 13004KT 33/15 A3007 RMK A01 T03340154  RH  035%=      5-min Rain = 0
KMES 142055Z 08006KT 34/15 A3006 RMK A01 T03360148  RH  034%=      5-min Rain = 0
KMES 142100Z 08006G11KT 34/15 A3006 RMK A01 T03370146  RH  033%=      5-min Rain = 0
KMES 142105Z 09004KT 34/15 A3006 RMK A01 T03360149  RH  034%=      5-min Rain = 0
KMES 142110Z 18002KT 34/15 A3006 RMK A01 T03370147  RH  033%=      5-min Rain = 0
KMES 142115Z 24004KT 34/15 A3005 RMK A01 T03390147  RH  033%=      5-min Rain = 0
KMES 142120Z 10003KT 34/15 A3005 RMK A01 T03380151  RH  034%=      5-min Rain = 0
KMES 142125Z 06006G19KT 34/15 A3005 RMK A01 T03400150  RH  033%=      5-min Rain = 0
KMES 142130Z 06008KT 34/15 A3005 RMK A01 T03430150  RH  033%=      5-min Rain = 0
KMES 142135Z 09005KT 34/15 A3005 RMK A01 T03410152  RH  034%=      5-min Rain = 0
KMES 142140Z 19002KT 34/15 A3004 RMK A01 T03400149  RH  033%=      5-min Rain = 0
KMES 142145Z 06004KT 34/15 A3004 RMK A01 T03410146  RH  032%=      5-min Rain = 0
KMES 142150Z 08007KT 34/14 A3004 RMK A01 T03420140  RH  031%=      5-min Rain = 0
KMES 142155Z 08005KT 34/14 A3004 RMK A01 T03410141  RH  031%=      5-min Rain = 0
KMES 142200Z 07006G11KT 34/15 A3004 RMK A01 T03440145  RH  032%=      5-min Rain = 0
KMES 142205Z 11002G7KT 35/15 A3004 RMK A01 T03450147  RH  032%=      5-min Rain = 0
KMES 142210Z 15004KT 35/14 A3004 RMK A01 T03470142  RH  031%=      5-min Rain = 0
KMES 142215Z 05004G10KT 35/14 A3003 RMK A01 T03460142  RH  031%=      5-min Rain = 0
KMES 142220Z 07008KT 34/14 A3003 RMK A01 T03440139  RH  030%=      5-min Rain = 0
KMES 142225Z 06007KT 34/14 A3003 RMK A01 T03420139  RH  031%=      5-min Rain = 0
KMES 142230Z 08006G11KT 34/14 A3003 RMK A01 T03430139  RH  031%=      5-min Rain = 0
KMES 142235Z 11007KT 35/14 A3003 RMK A01 T03460142  RH  031%=      5-min Rain = 0
KMES 142240Z 10006G11KT 35/14 A3003 RMK A01 T03480144  RH  031%=      5-min Rain = 0
KMES 142245Z 08007KT 35/14 A3003 RMK A01 T03470135  RH  029%=      5-min Rain = 0
KMES 142250Z 05006KT 35/13 A3003 RMK A01 T03450132  RH  029%=      5-min Rain = 0
KMES 142255Z 04004KT 34/14 A3003 RMK A01 T03440135  RH  030%=      5-min Rain = 0
KMES 142300Z 06006KT 34/13 A3003 RMK A01 T03430131  RH  029%=      5-min Rain = 0
KMES 142305Z 04006G11KT 34/13 A3003 RMK A01 T03440132  RH  029%=      5-min Rain = 0
KMES 142310Z 06007KT 34/13 A3003 RMK A01 T03430131  RH  029%=      5-min Rain = 0
KMES 142315Z 07010KT 34/13 A3003 RMK A01 T03420133  RH  029%=      5-min Rain = 0
KMES 142320Z 08007KT 34/13 A3003 RMK A01 T03420132  RH  029%=      5-min Rain = 0
KMES 142325Z 10005KT 34/13 A3003 RMK A01 T03420131  RH  029%=      5-min Rain = 0
KMES 142330Z 09004G9KT 34/13 A3003 RMK A01 T03440134  RH  030%=      5-min Rain = 0
KMES 142335Z 08008KT 34/14 A3003 RMK A01 T03430137  RH  030%=      5-min Rain = 0
KMES 142340Z 09008G14KT 34/14 A3003 RMK A01 T03410138  RH  031%=      5-min Rain = 0
KMES 142345Z 08007KT 34/14 A3003 RMK A01 T03390137  RH  031%=      5-min Rain = 0
KMES 142350Z 09006KT 34/14 A3003 RMK A01 T03380138  RH  031%=      5-min Rain = 0
KMES 142355Z 09007G14KT 34/14 A3003 RMK A01 T03380138  RH  031%=      5-min Rain = 0
KMES 150000Z 08005KT 34/14 A3003 RMK A01 T03390137  RH  031%=      5-min Rain = 0
KMES 150005Z 09006KT 34/14 A3003 RMK A01 T03390136  RH  031%=      5-min Rain = 0
KMES 150010Z 08007KT 34/14 A3003 RMK A01 T03370136  RH  031%=      5-min Rain = 0
KMES 150015Z 09006KT 34/14 A3003 RMK A01 T03350139  RH  032%=      5-min Rain = 0
KMES 150020Z 09006KT 33/14 A3003 RMK A01 T03340141  RH  033%=      5-min Rain = 0
KMES 150025Z 09006KT 33/14 A3003 RMK A01 T03330141  RH  033%=      5-min Rain = 0
KMES 150030Z 08006KT 33/14 A3003 RMK A01 T03320140  RH  033%=      5-min Rain = 0
KMES 150035Z 10007KT 33/14 A3003 RMK A01 T03310143  RH  033%=      5-min Rain = 0
KMES 150040Z 12008KT 33/15 A3003 RMK A01 T03300147  RH  035%=      5-min Rain = 0
KMES 150045Z 12007KT 33/15 A3003 RMK A01 T03290148  RH  035%=      5-min Rain = 0
KMES 150050Z 11007KT 33/15 A3003 RMK A01 T03280148  RH  035%=      5-min Rain = 0
KMES 150055Z 10005KT 33/15 A3004 RMK A01 T03270149  RH  036%=      5-min Rain = 0
KMES 150100Z 10005KT 33/15 A3004 RMK A01 T03250150  RH  037%=      5-min Rain = 0
KMES 150105Z 10006KT 32/15 A3004 RMK A01 T03230149  RH  037%=      5-min Rain = 0
KMES 150110Z 11006KT 32/15 A3004 RMK A01 T03210150  RH  037%=      5-min Rain = 0
KMES 150115Z 11005KT 32/15 A3004 RMK A01 T03180151  RH  038%=      5-min Rain = 0
KMES 150120Z 11005KT 32/15 A3004 RMK A01 T03150153  RH  039%=      5-min Rain = 0
KMES 150125Z 11005KT 31/15 A3004 RMK A01 T03120153  RH  040%=      5-min Rain = 0
KMES 150130Z 10004KT 31/15 A3005 RMK A01 T03090154  RH  041%=      5-min Rain = 0
KMES 150135Z 10004KT 31/16 A3005 RMK A01 T03060155  RH  042%=      5-min Rain = 0
KMES 150140Z 11004KT 30/16 A3005 RMK A01 T03030157  RH  043%=      5-min Rain = 0
KMES 150145Z 11004KT 30/16 A3005 RMK A01 T03000158  RH  044%=      5-min Rain = 0
KMES 150150Z 13005KT 30/16 A3006 RMK A01 T02980161  RH  046%=      5-min Rain = 0
KMES 150155Z 11005KT 30/16 A3006 RMK A01 T02950162  RH  047%=      5-min Rain = 0
KMES 150200Z 10004KT 29/16 A3006 RMK A01 T02930163  RH  047%=      5-min Rain = 0
KMES 150205Z 11004KT 29/16 A3006 RMK A01 T02910164  RH  048%=      5-min Rain = 0
KMES 150210Z 11005KT 29/17 A3006 RMK A01 T02890165  RH  049%=      5-min Rain = 0
KMES 150215Z 12005KT 29/16 A3007 RMK A01 T02880164  RH  049%=      5-min Rain = 0
KMES 150220Z 11004KT 29/16 A3007 RMK A01 T02870162  RH  049%=      5-min Rain = 0
KMES 150225Z 11004KT 29/16 A3007 RMK A01 T02860162  RH  049%=      5-min Rain = 0
KMES 150230Z 11005KT 29/16 A3007 RMK A01 T02850162  RH  050%=      5-min Rain = 0
KMES 150235Z 11004KT 28/16 A3008 RMK A01 T02830161  RH  050%=      5-min Rain = 0
KMES 150240Z 11005KT 28/16 A3008 RMK A01 T02820161  RH  050%=      5-min Rain = 0
KMES 150245Z 11005KT 28/16 A3008 RMK A01 T02800162  RH  051%=      5-min Rain = 0
KMES 150250Z 12004KT 28/16 A3008 RMK A01 T02790162  RH  051%=      5-min Rain = 0
KMES 150255Z 11004KT 28/16 A3008 RMK A01 T02780162  RH  052%=      5-min Rain = 0
KMES 150300Z 11004KT 28/16 A3009 RMK A01 T02780162  RH  052%=      5-min Rain = 0
KMES 150305Z 11005KT 28/16 A3009 RMK A01 T02770163  RH  052%=      5-min Rain = 0
KMES 150310Z 10004KT 28/16 A3009 RMK A01 T02770163  RH  052%=      5-min Rain = 0
KMES 150315Z 10005KT 28/16 A3009 RMK A01 T02750163  RH  053%=      5-min Rain = 0
KMES 150320Z 10005KT 28/16 A3009 RMK A01 T02750161  RH  052%=      5-min Rain = 0
KMES 150325Z 10005KT 28/16 A3009 RMK A01 T02750161  RH  052%=      5-min Rain = 0
KMES 150330Z 10004KT 27/16 A3009 RMK A01 T02740161  RH  052%=      5-min Rain = 0
KMES 150335Z 10005KT 27/16 A301 RMK A01 T02740161  RH  052%=      5-min Rain = 0
KMES 150340Z 10005KT 28/16 A301 RMK A01 T02750160  RH  052%=      5-min Rain = 0
KMES 150345Z 10005KT 28/16 A301 RMK A01 T02750160  RH  052%=      5-min Rain = 0
KMES 150350Z 10005KT 28/16 A301 RMK A01 T02750160  RH  052%=      5-min Rain = 0
KMES 150355Z 11005KT 28/16 A301 RMK A01 T02750161  RH  052%=      5-min Rain = 0
KMES 150400Z 10004KT 27/16 A301 RMK A01 T02740161  RH  053%=      5-min Rain = 0
KMES 150405Z 10004KT 27/16 A3011 RMK A01 T02730161  RH  053%=      5-min Rain = 0
KMES 150410Z 09005KT 27/16 A3011 RMK A01 T02730160  RH  053%=      5-min Rain = 0
KMES 150415Z 09005KT 27/16 A3011 RMK A01 T02730160  RH  053%=      5-min Rain = 0
KMES 150420Z 09005KT 27/16 A3011 RMK A01 T02730161  RH  053%=      5-min Rain = 0
KMES 150425Z 09005KT 27/16 A301 RMK A01 T02730161  RH  053%=      5-min Rain = 0
KMES 150430Z 09005KT 27/16 A3011 RMK A01 T02730161  RH  053%=      5-min Rain = 0
KMES 150435Z 15005KT 27/16 A3011 RMK A01 T02720163  RH  054%=      5-min Rain = 0
KMES 150440Z 19004KT 27/17 A3011 RMK A01 T02660168  RH  058%=      5-min Rain = 0
KMES 150445Z 15003KT 26/17 A3011 RMK A01 T02630168  RH  059%=      5-min Rain = 0
KMES 150450Z 15003KT 26/17 A3011 RMK A01 T02630168  RH  059%=      5-min Rain = 0
KMES 150455Z 18003KT 26/17 A3011 RMK A01 T02620169  RH  059%=      5-min Rain = 0

Page generated in 0.0092 seconds.